Azteca II — ZGDV8 — position and weather

sailwx.info

Track history (hours):
 
Tides and Currents Weather Stations Pressure Air Temp Water Temp Dewpoint Dewpoint Depression Visibility Wind Speed Wind Dir Waves Ship Positions

Azteca II

Last reported at 2017-Sep-27 23:17 UTC. Time now 2017-Nov-19 03:27 UTC.
Position N 28°58' W 115°26'.
Warning: this ship's position is 52 days out of date.

Length 50 m; draft 3.5 m.

Type: Pleasure craft. MMSI: 319063100.

Date/timePositionNaut miles runAvg speedWind from/ knotsBaromVisibWave heightAir tempDewpointWater temp
2017-Sep-27 23:17N 28°58' W 115°26'514.0
2017-Sep-27 22:54N 29°03' W 115°29'813.7
2017-Sep-27 22:19N 29°10' W 115°32'9813.4
2017-Sep-27 15:00N 30°40' W 116°18'713.2
2017-Sep-27 14:28N 30°46' W 116°21'613.2
2017-Sep-27 14:00N 30°52' W 116°24'713.4
2017-Sep-27 13:29N 30°58' W 116°27'1713.5
2017-Sep-27 12:16N 31°13' W 116°35'413.7
2017-Sep-27 12:00N 31°17' W 116°36'714.3
2017-Sep-27 11:29N 31°23' W 116°40'814.3
2017-Sep-27 10:57N 31°30' W 116°43'1213.7
2017-Sep-27 10:03N 31°42' W 116°49'113.5
2017-Sep-27 09:59N 31°43' W 116°50'2513.2
2017-Sep-27 08:05N 32°06' W 117°01'113.1
2017-Sep-27 08:00N 32°07' W 117°02'613.1
2017-Sep-27 07:30N 32°13' W 117°05'713.4
2017-Sep-27 07:00N 32°19' W 117°08'713.6
2017-Sep-27 06:30N 32°25' W 117°11'714.0
2017-Sep-27 06:00N 32°32' W 117°12'713.7
2017-Sep-27 05:30N 32°39' W 117°14'4 8.9
2017-Sep-27 05:00N 32°43' W 117°11'1 0.5
2017-Sep-27 02:07N 32°42' W 117°10'1 0.0
2017-Sep-25 21:25N 32°42' W 117°10'3 6.5
2017-Sep-25 21:00N 32°43' W 117°14'0 0.0
2017-Sep-25 20:30N 32°43' W 117°14'0 0.0
2017-Sep-25 20:00N 32°43' W 117°14'0 0.0
2017-Sep-25 19:30N 32°43' W 117°14'0 0.0
2017-Sep-25 19:00N 32°43' W 117°14'0 0.0
2017-Sep-25 18:30N 32°43' W 117°14'0 0.0
2017-Sep-25 18:00N 32°43' W 117°14'0 0.0
2017-Sep-25 17:27N 32°43' W 117°14'0 0.0
2017-Sep-25 17:00N 32°43' W 117°14'0 0.0
2017-Sep-25 16:30N 32°43' W 117°14'0 0.5
2017-Sep-25 16:00N 32°43' W 117°13'  
2017-Sep-19 16:52N 32°42' W 117°09'  
Track history (hours):
 
Tides and Currents Weather Stations Pressure Air Temp Water Temp Dewpoint Dewpoint Depression Visibility Wind Speed Wind Dir Waves Ship Positions

Azteca II

Last reported at 2017-Sep-27 23:17 UTC. Time now 2017-Nov-19 03:27 UTC.
Position N 28°58' W 115°26'.
Warning: this ship's position is 52 days out of date.

Length 50 m; draft 3.5 m.

Type: Pleasure craft. MMSI: 319063100.

Date/timePositionNaut miles runAvg speedWind from/ knotsBaromVisibWave heightAir tempDewpointWater temp
2017-Sep-27 23:17N 28°58' W 115°26'514.0
2017-Sep-27 22:54N 29°03' W 115°29'813.7
2017-Sep-27 22:19N 29°10' W 115°32'9813.4
2017-Sep-27 15:00N 30°40' W 116°18'713.2
2017-Sep-27 14:28N 30°46' W 116°21'613.2
2017-Sep-27 14:00N 30°52' W 116°24'713.4
2017-Sep-27 13:29N 30°58' W 116°27'1713.5
2017-Sep-27 12:16N 31°13' W 116°35'413.7
2017-Sep-27 12:00N 31°17' W 116°36'714.3
2017-Sep-27 11:29N 31°23' W 116°40'814.3
2017-Sep-27 10:57N 31°30' W 116°43'1213.7
2017-Sep-27 10:03N 31°42' W 116°49'113.5
2017-Sep-27 09:59N 31°43' W 116°50'2513.2
2017-Sep-27 08:05N 32°06' W 117°01'113.1
2017-Sep-27 08:00N 32°07' W 117°02'613.1
2017-Sep-27 07:30N 32°13' W 117°05'713.4
2017-Sep-27 07:00N 32°19' W 117°08'713.6
2017-Sep-27 06:30N 32°25' W 117°11'714.0
2017-Sep-27 06:00N 32°32' W 117°12'713.7
2017-Sep-27 05:30N 32°39' W 117°14'4 8.9
2017-Sep-27 05:00N 32°43' W 117°11'1 0.5
2017-Sep-27 02:07N 32°42' W 117°10'1 0.0
2017-Sep-25 21:25N 32°42' W 117°10'3 6.5
2017-Sep-25 21:00N 32°43' W 117°14'0 0.0
2017-Sep-25 20:30N 32°43' W 117°14'0 0.0
2017-Sep-25 20:00N 32°43' W 117°14'0 0.0
2017-Sep-25 19:30N 32°43' W 117°14'0 0.0
2017-Sep-25 19:00N 32°43' W 117°14'0 0.0
2017-Sep-25 18:30N 32°43' W 117°14'0 0.0
2017-Sep-25 18:00N 32°43' W 117°14'0 0.0
2017-Sep-25 17:27N 32°43' W 117°14'0 0.0
2017-Sep-25 17:00N 32°43' W 117°14'0 0.0
2017-Sep-25 16:30N 32°43' W 117°14'0 0.5
2017-Sep-25 16:00N 32°43' W 117°13'  
2017-Sep-19 16:52N 32°42' W 117°09'  

Dump ship's entire track history